This is the latest recevied weather packets stored in our database for station/object SQ6PCH-10. If no packets are shown the sender has not sent any weather packets the latest 10 day(s).
| Time | Temp. | Humidity | Pressure | Rain* | Wind** | Luminosity | Snow |
|---|---|---|---|---|---|---|---|
| 1777534017 | 12.22° C | 30% | 1016.8 hPa | - | - | - | - |
| 1777533417 | 10° C | 35% | 1016.8 hPa | - | - | - | - |
| 1777532817 | 9.44° C | 36% | 1016.8 hPa | - | - | - | - |
| 1777532217 | 8.89° C | 38% | 1016.9 hPa | - | - | - | - |
| 1777531617 | 7.78° C | 42% | 1016.9 hPa | - | - | - | - |
| 1777531017 | 6.67° C | 44% | 1016.9 hPa | - | - | - | - |
| 1777530416 | 6.11° C | 47% | 1016.9 hPa | - | - | - | - |
| 1777529816 | 5° C | 52% | 1016.9 hPa | - | - | - | - |
| 1777529216 | 4.44° C | 55% | 1017 hPa | - | - | - | - |
| 1777528616 | 3.89° C | 57% | 1017 hPa | - | - | - | - |
| 1777528016 | 2.78° C | 61% | 1017 hPa | - | - | - | - |
| 1777527416 | 2.22° C | 64% | 1017 hPa | - | - | - | - |
| 1777526815 | 1.67° C | 65% | 1017.1 hPa | - | - | - | - |
| 1777526215 | 1.11° C | 67% | 1017 hPa | - | - | - | - |
| 1777525615 | 0.56° C | 70% | 1017.1 hPa | - | - | - | - |
| 1777525015 | 0.56° C | 72% | 1016.9 hPa | - | - | - | - |
| 1777524415 | 0° C | 74% | 1016.8 hPa | - | - | - | - |
| 1777523815 | 0° C | 75% | 1016.8 hPa | - | - | - | - |
| 1777523214 | -0.56° C | 77% | 1016.8 hPa | - | - | - | - |
| 1777522614 | -0.56° C | 78% | 1016.8 hPa | - | - | - | - |
| 1777522014 | -1.11° C | 78% | 1016.7 hPa | - | - | - | - |
| 1777521414 | -1.11° C | 78% | 1016.8 hPa | - | - | - | - |
| 1777520814 | -1.11° C | 77% | 1016.7 hPa | - | - | - | - |
| 1777520214 | -1.67° C | 77% | 1016.6 hPa | - | - | - | - |
| 1777519613 | -1.67° C | 77% | 1016.6 hPa | - | - | - | - |
* Rain since midnight (hover to see other rain measurements)
** Current wind speed in m/s (hover to see current wind gust speed)